sensor_id;sensor_type;location;lat;lon;timestamp;temperature;humidity
25640;DHT22;13497;48.322;16.204;2023-03-26T00:01:24;8.30;99.90
25640;DHT22;13497;48.322;16.204;2023-03-26T00:03:51;8.30;99.90
25640;DHT22;13497;48.322;16.204;2023-03-26T00:06:27;8.20;99.90
25640;DHT22;13497;48.322;16.204;2023-03-26T00:08:55;8.20;99.90
25640;DHT22;13497;48.322;16.204;2023-03-26T00:11:23;8.20;99.90
25640;DHT22;13497;48.322;16.204;2023-03-26T00:13:50;8.20;99.90
25640;DHT22;13497;48.322;16.204;2023-03-26T00:16:19;8.20;99.90
25640;DHT22;13497;48.322;16.204;2023-03-26T00:18:45;8.20;99.90
25640;DHT22;13497;48.322;16.204;2023-03-26T00:21:15;8.20;99.90
25640;DHT22;13497;48.322;16.204;2023-03-26T00:23:42;8.20;99.90
25640;DHT22;13497;48.322;16.204;2023-03-26T00:26:08;8.30;99.90
25640;DHT22;13497;48.322;16.204;2023-03-26T00:28:39;8.30;99.90
25640;DHT22;13497;48.322;16.204;2023-03-26T00:31:07;8.30;99.90
25640;DHT22;13497;48.322;16.204;2023-03-26T00:33:34;8.30;99.90
25640;DHT22;13497;48.322;16.204;2023-03-26T00:36:07;8.40;99.90
25640;DHT22;13497;48.322;16.204;2023-03-26T00:38:35;8.40;99.90
25640;DHT22;13497;48.322;16.204;2023-03-26T00:41:05;8.40;99.90
25640;DHT22;13497;48.322;16.204;2023-03-26T00:43:33;8.50;99.90
25640;DHT22;13497;48.322;16.204;2023-03-26T00:45:59;8.50;99.90
25640;DHT22;13497;48.322;16.204;2023-03-26T00:48:27;8.50;99.90
25640;DHT22;13497;48.322;16.204;2023-03-26T00:50:55;8.50;99.90
25640;DHT22;13497;48.322;16.204;2023-03-26T00:53:21;8.50;99.90
25640;DHT22;13497;48.322;16.204;2023-03-26T00:55:47;8.50;99.90
25640;DHT22;13497;48.322;16.204;2023-03-26T00:58:14;8.50;99.90
25640;DHT22;13497;48.322;16.204;2023-03-26T01:00:55;8.50;99.90
25640;DHT22;13497;48.322;16.204;2023-03-26T01:03:23;8.50;99.90
25640;DHT22;13497;48.322;16.204;2023-03-26T01:06:06;8.50;99.90
25640;DHT22;13497;48.322;16.204;2023-03-26T01:08:50;8.60;99.90
25640;DHT22;13497;48.322;16.204;2023-03-26T01:11:21;8.60;99.90
25640;DHT22;13497;48.322;16.204;2023-03-26T01:16:30;8.60;99.90
25640;DHT22;13497;48.322;16.204;2023-03-26T01:18:57;8.60;99.90
25640;DHT22;13497;48.322;16.204;2023-03-26T01:21:27;8.60;99.90
25640;DHT22;13497;48.322;16.204;2023-03-26T01:24:08;8.70;99.90
25640;DHT22;13497;48.322;16.204;2023-03-26T01:26:45;8.80;99.90
25640;DHT22;13497;48.322;16.204;2023-03-26T01:29:32;8.90;99.90
25640;DHT22;13497;48.322;16.204;2023-03-26T01:32:04;8.90;99.90
25640;DHT22;13497;48.322;16.204;2023-03-26T01:34:54;9.00;99.90
25640;DHT22;13497;48.322;16.204;2023-03-26T01:37:27;9.00;99.90
25640;DHT22;13497;48.322;16.204;2023-03-26T01:40:03;9.00;99.90
25640;DHT22;13497;48.322;16.204;2023-03-26T01:43:00;9.00;99.90
25640;DHT22;13497;48.322;16.204;2023-03-26T01:45:33;9.00;99.90
25640;DHT22;13497;48.322;16.204;2023-03-26T01:48:00;9.10;99.90
25640;DHT22;13497;48.322;16.204;2023-03-26T01:50:27;9.10;99.90
25640;DHT22;13497;48.322;16.204;2023-03-26T01:52:52;9.20;99.90
25640;DHT22;13497;48.322;16.204;2023-03-26T01:55:18;9.20;99.90
25640;DHT22;13497;48.322;16.204;2023-03-26T01:58:11;9.30;99.90
25640;DHT22;13497;48.322;16.204;2023-03-26T02:00:50;9.30;99.90
25640;DHT22;13497;48.322;16.204;2023-03-26T02:03:46;9.30;99.90
25640;DHT22;13497;48.322;16.204;2023-03-26T02:06:55;9.30;99.90
25640;DHT22;13497;48.322;16.204;2023-03-26T02:09:29;9.30;99.90
25640;DHT22;13497;48.322;16.204;2023-03-26T02:11:56;9.30;99.90
25640;DHT22;13497;48.322;16.204;2023-03-26T02:14:22;9.20;99.90
25640;DHT22;13497;48.322;16.204;2023-03-26T02:16:49;9.20;99.90
25640;DHT22;13497;48.322;16.204;2023-03-26T02:19:15;9.20;99.90
25640;DHT22;13497;48.322;16.204;2023-03-26T02:21:46;9.20;99.90
25640;DHT22;13497;48.322;16.204;2023-03-26T02:24:15;9.20;99.90
25640;DHT22;13497;48.322;16.204;2023-03-26T02:26:41;9.20;99.90
25640;DHT22;13497;48.322;16.204;2023-03-26T02:29:07;9.10;99.90
25640;DHT22;13497;48.322;16.204;2023-03-26T02:31:33;9.00;99.90
25640;DHT22;13497;48.322;16.204;2023-03-26T02:34:00;8.90;99.90
25640;DHT22;13497;48.322;16.204;2023-03-26T02:36:26;8.80;99.90
25640;DHT22;13497;48.322;16.204;2023-03-26T02:38:53;8.70;99.90
25640;DHT22;13497;48.322;16.204;2023-03-26T02:41:19;8.60;99.90
25640;DHT22;13497;48.322;16.204;2023-03-26T02:43:45;8.60;99.90
25640;DHT22;13497;48.322;16.204;2023-03-26T02:46:11;8.60;99.90
25640;DHT22;13497;48.322;16.204;2023-03-26T02:48:36;8.60;99.90
25640;DHT22;13497;48.322;16.204;2023-03-26T02:51:03;8.50;99.90
25640;DHT22;13497;48.322;16.204;2023-03-26T02:53:29;8.50;99.90
25640;DHT22;13497;48.322;16.204;2023-03-26T02:55:56;8.50;99.90
25640;DHT22;13497;48.322;16.204;2023-03-26T02:58:22;8.50;99.90
25640;DHT22;13497;48.322;16.204;2023-03-26T03:00:50;8.50;99.90
25640;DHT22;13497;48.322;16.204;2023-03-26T03:03:21;8.50;99.90
25640;DHT22;13497;48.322;16.204;2023-03-26T03:05:51;8.60;99.90
25640;DHT22;13497;48.322;16.204;2023-03-26T03:08:21;8.60;99.90
25640;DHT22;13497;48.322;16.204;2023-03-26T03:11:07;8.70;99.90
25640;DHT22;13497;48.322;16.204;2023-03-26T03:13:32;8.80;99.90
25640;DHT22;13497;48.322;16.204;2023-03-26T03:15:58;8.80;99.90
25640;DHT22;13497;48.322;16.204;2023-03-26T03:18:24;8.90;99.90
25640;DHT22;13497;48.322;16.204;2023-03-26T03:20:50;8.90;99.90
25640;DHT22;13497;48.322;16.204;2023-03-26T03:23:15;9.00;99.90
25640;DHT22;13497;48.322;16.204;2023-03-26T03:25:42;9.00;99.90
25640;DHT22;13497;48.322;16.204;2023-03-26T03:28:08;9.00;99.90
25640;DHT22;13497;48.322;16.204;2023-03-26T03:30:34;8.90;99.90
25640;DHT22;13497;48.322;16.204;2023-03-26T03:33:00;8.90;99.90
25640;DHT22;13497;48.322;16.204;2023-03-26T03:35:27;8.90;99.90
25640;DHT22;13497;48.322;16.204;2023-03-26T03:37:55;8.90;99.90
25640;DHT22;13497;48.322;16.204;2023-03-26T03:40:21;9.00;99.90
25640;DHT22;13497;48.322;16.204;2023-03-26T03:42:46;9.10;99.90
25640;DHT22;13497;48.322;16.204;2023-03-26T03:45:12;9.20;99.90
25640;DHT22;13497;48.322;16.204;2023-03-26T03:47:38;9.30;99.90
25640;DHT22;13497;48.322;16.204;2023-03-26T03:50:05;9.30;99.90
25640;DHT22;13497;48.322;16.204;2023-03-26T03:52:31;9.40;99.90
25640;DHT22;13497;48.322;16.204;2023-03-26T03:54:57;9.50;99.90
25640;DHT22;13497;48.322;16.204;2023-03-26T03:57:25;9.50;99.90
25640;DHT22;13497;48.322;16.204;2023-03-26T03:59:51;9.50;99.90
25640;DHT22;13497;48.322;16.204;2023-03-26T04:02:18;9.50;99.90
25640;DHT22;13497;48.322;16.204;2023-03-26T04:04:53;9.50;99.90
25640;DHT22;13497;48.322;16.204;2023-03-26T04:07:19;9.40;99.90
25640;DHT22;13497;48.322;16.204;2023-03-26T04:09:45;9.40;99.90
25640;DHT22;13497;48.322;16.204;2023-03-26T04:12:11;9.30;99.90
25640;DHT22;13497;48.322;16.204;2023-03-26T04:14:36;9.20;99.90
25640;DHT22;13497;48.322;16.204;2023-03-26T04:17:02;9.10;99.90
25640;DHT22;13497;48.322;16.204;2023-03-26T04:19:29;9.10;99.90
25640;DHT22;13497;48.322;16.204;2023-03-26T04:21:55;9.00;99.90
25640;DHT22;13497;48.322;16.204;2023-03-26T04:24:30;8.90;99.90
25640;DHT22;13497;48.322;16.204;2023-03-26T04:26:59;8.90;99.90
25640;DHT22;13497;48.322;16.204;2023-03-26T04:29:26;8.80;99.90
25640;DHT22;13497;48.322;16.204;2023-03-26T04:31:55;8.80;99.90
25640;DHT22;13497;48.322;16.204;2023-03-26T04:34:31;8.80;99.90
25640;DHT22;13497;48.322;16.204;2023-03-26T04:36:57;8.70;99.90
25640;DHT22;13497;48.322;16.204;2023-03-26T04:39:24;8.70;99.90
25640;DHT22;13497;48.322;16.204;2023-03-26T04:41:57;8.60;99.90
25640;DHT22;13497;48.322;16.204;2023-03-26T04:44:23;8.60;99.90
25640;DHT22;13497;48.322;16.204;2023-03-26T04:46:49;8.70;99.90
25640;DHT22;13497;48.322;16.204;2023-03-26T04:49:17;8.80;99.90
25640;DHT22;13497;48.322;16.204;2023-03-26T04:51:43;8.80;99.90
25640;DHT22;13497;48.322;16.204;2023-03-26T04:54:13;8.80;99.90
25640;DHT22;13497;48.322;16.204;2023-03-26T04:56:58;8.80;99.90
25640;DHT22;13497;48.322;16.204;2023-03-26T04:59:28;8.80;99.90
25640;DHT22;13497;48.322;16.204;2023-03-26T05:02:00;8.80;99.90
25640;DHT22;13497;48.322;16.204;2023-03-26T05:04:27;8.80;99.90
25640;DHT22;13497;48.322;16.204;2023-03-26T05:06:57;8.80;99.90
25640;DHT22;13497;48.322;16.204;2023-03-26T05:09:26;8.80;99.90
25640;DHT22;13497;48.322;16.204;2023-03-26T05:11:51;8.80;99.90
25640;DHT22;13497;48.322;16.204;2023-03-26T05:14:18;8.90;99.90
25640;DHT22;13497;48.322;16.204;2023-03-26T05:16:45;9.10;99.90
25640;DHT22;13497;48.322;16.204;2023-03-26T05:19:12;9.20;99.90
25640;DHT22;13497;48.322;16.204;2023-03-26T05:21:38;9.20;99.90
25640;DHT22;13497;48.322;16.204;2023-03-26T05:24:04;9.30;99.90
25640;DHT22;13497;48.322;16.204;2023-03-26T05:26:31;9.30;99.90
25640;DHT22;13497;48.322;16.204;2023-03-26T05:28:56;9.30;99.90
25640;DHT22;13497;48.322;16.204;2023-03-26T05:31:22;9.30;99.90
25640;DHT22;13497;48.322;16.204;2023-03-26T05:33:48;9.30;99.90
25640;DHT22;13497;48.322;16.204;2023-03-26T05:36:15;9.30;99.90
25640;DHT22;13497;48.322;16.204;2023-03-26T05:38:42;9.40;99.90
25640;DHT22;13497;48.322;16.204;2023-03-26T05:41:14;10.00;99.90
25640;DHT22;13497;48.322;16.204;2023-03-26T05:43:40;11.10;99.90
25640;DHT22;13497;48.322;16.204;2023-03-26T05:46:06;11.70;99.90
25640;DHT22;13497;48.322;16.204;2023-03-26T05:48:32;11.50;99.90
25640;DHT22;13497;48.322;16.204;2023-03-26T05:50:58;10.90;99.90
25640;DHT22;13497;48.322;16.204;2023-03-26T05:53:25;10.60;99.90
25640;DHT22;13497;48.322;16.204;2023-03-26T05:55:52;10.40;99.90
25640;DHT22;13497;48.322;16.204;2023-03-26T05:58:23;10.30;99.90
25640;DHT22;13497;48.322;16.204;2023-03-26T06:00:56;10.20;99.90
25640;DHT22;13497;48.322;16.204;2023-03-26T06:03:23;10.20;99.90
25640;DHT22;13497;48.322;16.204;2023-03-26T06:05:48;10.30;99.90
25640;DHT22;13497;48.322;16.204;2023-03-26T06:08:14;10.30;99.90
25640;DHT22;13497;48.322;16.204;2023-03-26T06:10:40;10.30;99.90
25640;DHT22;13497;48.322;16.204;2023-03-26T06:13:06;10.20;99.90
25640;DHT22;13497;48.322;16.204;2023-03-26T06:15:31;10.10;99.90
25640;DHT22;13497;48.322;16.204;2023-03-26T06:17:57;10.10;99.90
25640;DHT22;13497;48.322;16.204;2023-03-26T06:20:23;10.10;99.90
25640;DHT22;13497;48.322;16.204;2023-03-26T06:22:48;10.10;99.90
25640;DHT22;13497;48.322;16.204;2023-03-26T06:25:14;10.20;99.90
25640;DHT22;13497;48.322;16.204;2023-03-26T06:27:40;10.30;99.90
25640;DHT22;13497;48.322;16.204;2023-03-26T06:30:06;10.30;99.90
25640;DHT22;13497;48.322;16.204;2023-03-26T06:32:32;10.20;99.90
25640;DHT22;13497;48.322;16.204;2023-03-26T06:34:58;10.20;99.90
25640;DHT22;13497;48.322;16.204;2023-03-26T06:37:24;10.30;99.90
25640;DHT22;13497;48.322;16.204;2023-03-26T06:39:49;10.30;99.90
25640;DHT22;13497;48.322;16.204;2023-03-26T06:42:15;10.50;99.90
25640;DHT22;13497;48.322;16.204;2023-03-26T06:44:41;10.50;99.90
25640;DHT22;13497;48.322;16.204;2023-03-26T06:47:09;10.50;99.90
25640;DHT22;13497;48.322;16.204;2023-03-26T06:49:35;10.50;99.90
25640;DHT22;13497;48.322;16.204;2023-03-26T06:52:02;10.50;99.90
25640;DHT22;13497;48.322;16.204;2023-03-26T06:54:28;10.50;99.90
25640;DHT22;13497;48.322;16.204;2023-03-26T06:56:54;10.50;99.90
25640;DHT22;13497;48.322;16.204;2023-03-26T06:59:20;10.50;99.90
25640;DHT22;13497;48.322;16.204;2023-03-26T07:01:46;10.60;99.90
25640;DHT22;13497;48.322;16.204;2023-03-26T07:04:12;10.50;99.90
25640;DHT22;13497;48.322;16.204;2023-03-26T07:06:38;10.50;99.90
25640;DHT22;13497;48.322;16.204;2023-03-26T07:09:03;10.50;99.90
25640;DHT22;13497;48.322;16.204;2023-03-26T07:11:29;10.50;99.90
25640;DHT22;13497;48.322;16.204;2023-03-26T07:13:55;10.70;99.90
25640;DHT22;13497;48.322;16.204;2023-03-26T07:16:21;10.90;99.90
25640;DHT22;13497;48.322;16.204;2023-03-26T07:18:47;11.00;99.90
25640;DHT22;13497;48.322;16.204;2023-03-26T07:21:13;11.10;99.90
25640;DHT22;13497;48.322;16.204;2023-03-26T07:23:39;11.20;99.90
25640;DHT22;13497;48.322;16.204;2023-03-26T07:28:53;11.30;99.90
25640;DHT22;13497;48.322;16.204;2023-03-26T07:37:08;11.60;99.90
25640;DHT22;13497;48.322;16.204;2023-03-26T07:47:55;12.10;99.90
25640;DHT22;13497;48.322;16.204;2023-03-26T07:50:22;12.20;99.60
25640;DHT22;13497;48.322;16.204;2023-03-26T07:52:48;12.10;99.50
25640;DHT22;13497;48.322;16.204;2023-03-26T07:55:15;11.90;99.60
25640;DHT22;13497;48.322;16.204;2023-03-26T08:00:51;12.00;99.80
25640;DHT22;13497;48.322;16.204;2023-03-26T08:08:41;12.50;99.30
25640;DHT22;13497;48.322;16.204;2023-03-26T08:14:07;12.70;98.40
25640;DHT22;13497;48.322;16.204;2023-03-26T08:21:52;12.50;98.30
25640;DHT22;13497;48.322;16.204;2023-03-26T08:24:39;12.80;98.50
25640;DHT22;13497;48.322;16.204;2023-03-26T08:27:19;12.80;97.70
25640;DHT22;13497;48.322;16.204;2023-03-26T08:32:16;12.70;97.60
25640;DHT22;13497;48.322;16.204;2023-03-26T08:34:42;12.80;97.40
25640;DHT22;13497;48.322;16.204;2023-03-26T08:37:08;12.90;97.50
25640;DHT22;13497;48.322;16.204;2023-03-26T08:39:35;13.10;98.00
25640;DHT22;13497;48.322;16.204;2023-03-26T08:48:16;13.30;96.60
25640;DHT22;13497;48.322;16.204;2023-03-26T08:51:04;13.80;96.20
25640;DHT22;13497;48.322;16.204;2023-03-26T08:53:41;14.00;95.30
25640;DHT22;13497;48.322;16.204;2023-03-26T09:24:32;14.50;92.80
25640;DHT22;13497;48.322;16.204;2023-03-26T09:27:08;14.50;93.20
25640;DHT22;13497;48.322;16.204;2023-03-26T09:37:57;15.10;92.40
25640;DHT22;13497;48.322;16.204;2023-03-26T09:40:39;15.20;92.20
25640;DHT22;13497;48.322;16.204;2023-03-26T09:56:53;15.70;91.70
25640;DHT22;13497;48.322;16.204;2023-03-26T10:10:17;16.00;90.00
25640;DHT22;13497;48.322;16.204;2023-03-26T10:27:07;16.40;86.50
25640;DHT22;13497;48.322;16.204;2023-03-26T10:32:44;16.40;87.10
25640;DHT22;13497;48.322;16.204;2023-03-26T10:38:14;16.80;86.10
25640;DHT22;13497;48.322;16.204;2023-03-26T10:51:45;17.20;84.70
25640;DHT22;13497;48.322;16.204;2023-03-26T10:57:05;17.10;84.00
25640;DHT22;13497;48.322;16.204;2023-03-26T10:59:32;17.00;84.00
25640;DHT22;13497;48.322;16.204;2023-03-26T11:02:25;17.10;83.50
25640;DHT22;13497;48.322;16.204;2023-03-26T11:05:21;17.10;84.00
25640;DHT22;13497;48.322;16.204;2023-03-26T11:08:01;17.20;82.50
25640;DHT22;13497;48.322;16.204;2023-03-26T11:10:53;17.40;83.20
25640;DHT22;13497;48.322;16.204;2023-03-26T11:16:33;18.00;80.50
25640;DHT22;13497;48.322;16.204;2023-03-26T11:21:48;18.10;80.90
25640;DHT22;13497;48.322;16.204;2023-03-26T11:24:35;18.20;80.20
25640;DHT22;13497;48.322;16.204;2023-03-26T11:30:20;18.30;79.50
25640;DHT22;13497;48.322;16.204;2023-03-26T11:32:59;18.30;78.90
25640;DHT22;13497;48.322;16.204;2023-03-26T11:35:31;18.10;79.20
25640;DHT22;13497;48.322;16.204;2023-03-26T11:38:11;18.10;79.90
25640;DHT22;13497;48.322;16.204;2023-03-26T11:40:39;18.20;79.30
25640;DHT22;13497;48.322;16.204;2023-03-26T11:43:11;17.60;79.80
25640;DHT22;13497;48.322;16.204;2023-03-26T11:45:41;17.20;80.80
25640;DHT22;13497;48.322;16.204;2023-03-26T11:48:21;17.20;80.90
25640;DHT22;13497;48.322;16.204;2023-03-26T11:50:52;17.70;80.10
25640;DHT22;13497;48.322;16.204;2023-03-26T11:53:21;17.70;79.90
25640;DHT22;13497;48.322;16.204;2023-03-26T11:57:05;17.60;79.80
25640;DHT22;13497;48.322;16.204;2023-03-26T11:59:08;17.50;79.80
25640;DHT22;13497;48.322;16.204;2023-03-26T12:04:18;17.70;79.10
25640;DHT22;13497;48.322;16.204;2023-03-26T12:06:53;17.60;79.10
25640;DHT22;13497;48.322;16.204;2023-03-26T12:09:21;17.90;78.80
25640;DHT22;13497;48.322;16.204;2023-03-26T12:11:48;17.80;78.60
25640;DHT22;13497;48.322;16.204;2023-03-26T12:14:21;17.70;77.60
25640;DHT22;13497;48.322;16.204;2023-03-26T12:17:05;17.60;78.10
25640;DHT22;13497;48.322;16.204;2023-03-26T12:19:40;17.50;78.10
25640;DHT22;13497;48.322;16.204;2023-03-26T12:25:27;17.60;78.60
25640;DHT22;13497;48.322;16.204;2023-03-26T12:28:04;17.60;78.40
25640;DHT22;13497;48.322;16.204;2023-03-26T12:30:31;17.80;77.70
25640;DHT22;13497;48.322;16.204;2023-03-26T12:33:05;18.00;76.70
25640;DHT22;13497;48.322;16.204;2023-03-26T12:35:33;18.10;76.40
25640;DHT22;13497;48.322;16.204;2023-03-26T12:41:19;18.30;75.90
25640;DHT22;13497;48.322;16.204;2023-03-26T12:43:49;18.30;75.30
25640;DHT22;13497;48.322;16.204;2023-03-26T12:46:25;18.00;75.80
25640;DHT22;13497;48.322;16.204;2023-03-26T12:48:58;17.70;76.60
25640;DHT22;13497;48.322;16.204;2023-03-26T12:52:03;17.40;77.30
25640;DHT22;13497;48.322;16.204;2023-03-26T13:00:22;17.30;76.80
25640;DHT22;13497;48.322;16.204;2023-03-26T13:08:04;17.70;73.90
25640;DHT22;13497;48.322;16.204;2023-03-26T13:13:59;17.00;75.10
25640;DHT22;13497;48.322;16.204;2023-03-26T13:19:07;16.90;76.20
25640;DHT22;13497;48.322;16.204;2023-03-26T13:27:32;17.10;77.50
25640;DHT22;13497;48.322;16.204;2023-03-26T13:33:13;16.80;74.00
25640;DHT22;13497;48.322;16.204;2023-03-26T13:36:01;16.60;74.90
25640;DHT22;13497;48.322;16.204;2023-03-26T13:47:15;16.50;74.70
25640;DHT22;13497;48.322;16.204;2023-03-26T13:49:52;16.60;74.00
25640;DHT22;13497;48.322;16.204;2023-03-26T13:52:32;16.70;74.10
25640;DHT22;13497;48.322;16.204;2023-03-26T13:55:18;16.80;73.20
25640;DHT22;13497;48.322;16.204;2023-03-26T13:58:14;16.60;73.50
25640;DHT22;13497;48.322;16.204;2023-03-26T14:01:03;16.50;74.50
25640;DHT22;13497;48.322;16.204;2023-03-26T14:06:05;16.80;72.80
25640;DHT22;13497;48.322;16.204;2023-03-26T14:08:35;16.80;72.60
25640;DHT22;13497;48.322;16.204;2023-03-26T14:11:34;16.90;72.70
25640;DHT22;13497;48.322;16.204;2023-03-26T14:36:24;17.20;72.50
25640;DHT22;13497;48.322;16.204;2023-03-26T14:53:49;16.30;74.80
25640;DHT22;13497;48.322;16.204;2023-03-26T15:04:46;16.00;75.80
25640;DHT22;13497;48.322;16.204;2023-03-26T15:24:28;15.50;77.90
25640;DHT22;13497;48.322;16.204;2023-03-26T15:29:38;15.40;78.70
25640;DHT22;13497;48.322;16.204;2023-03-26T15:41:29;15.50;79.10
25640;DHT22;13497;48.322;16.204;2023-03-26T15:49:50;15.30;80.10
25640;DHT22;13497;48.322;16.204;2023-03-26T15:52:32;15.20;81.00
25640;DHT22;13497;48.322;16.204;2023-03-26T15:57:42;15.00;83.70
25640;DHT22;13497;48.322;16.204;2023-03-26T16:00:22;14.80;84.00
25640;DHT22;13497;48.322;16.204;2023-03-26T16:08:50;14.60;87.90
25640;DHT22;13497;48.322;16.204;2023-03-26T16:11:47;14.40;89.90
25640;DHT22;13497;48.322;16.204;2023-03-26T16:17:01;14.20;92.00
25640;DHT22;13497;48.322;16.204;2023-03-26T16:19:46;14.20;92.80
25640;DHT22;13497;48.322;16.204;2023-03-26T16:22:41;14.10;92.70
25640;DHT22;13497;48.322;16.204;2023-03-26T16:25:28;14.10;92.40
25640;DHT22;13497;48.322;16.204;2023-03-26T16:30:33;14.00;93.00
25640;DHT22;13497;48.322;16.204;2023-03-26T16:33:11;13.90;93.70
25640;DHT22;13497;48.322;16.204;2023-03-26T16:35:39;13.90;94.00
25640;DHT22;13497;48.322;16.204;2023-03-26T16:38:14;13.90;93.10
25640;DHT22;13497;48.322;16.204;2023-03-26T16:41:00;13.70;92.10
25640;DHT22;13497;48.322;16.204;2023-03-26T16:43:53;13.40;92.40
25640;DHT22;13497;48.322;16.204;2023-03-26T16:54:24;12.90;93.40
25640;DHT22;13497;48.322;16.204;2023-03-26T16:57:27;12.90;93.00
25640;DHT22;13497;48.322;16.204;2023-03-26T17:03:10;12.80;93.10
25640;DHT22;13497;48.322;16.204;2023-03-26T17:05:49;12.70;93.30
25640;DHT22;13497;48.322;16.204;2023-03-26T17:08:31;12.70;93.50
25640;DHT22;13497;48.322;16.204;2023-03-26T17:11:06;12.60;93.50
25640;DHT22;13497;48.322;16.204;2023-03-26T17:16:34;12.50;93.80
25640;DHT22;13497;48.322;16.204;2023-03-26T17:19:25;12.40;94.10
25640;DHT22;13497;48.322;16.204;2023-03-26T17:24:56;12.40;94.40
25640;DHT22;13497;48.322;16.204;2023-03-26T17:27:42;12.30;94.50
25640;DHT22;13497;48.322;16.204;2023-03-26T17:30:40;12.30;94.50
25640;DHT22;13497;48.322;16.204;2023-03-26T17:41:10;12.20;94.90
25640;DHT22;13497;48.322;16.204;2023-03-26T17:43:46;12.20;95.10
25640;DHT22;13497;48.322;16.204;2023-03-26T17:54:38;12.20;95.60
25640;DHT22;13497;48.322;16.204;2023-03-26T17:57:15;12.20;95.60
25640;DHT22;13497;48.322;16.204;2023-03-26T17:59:46;12.20;95.70
25640;DHT22;13497;48.322;16.204;2023-03-26T18:02:19;12.20;95.70
25640;DHT22;13497;48.322;16.204;2023-03-26T18:04:49;12.20;95.70
25640;DHT22;13497;48.322;16.204;2023-03-26T18:13:12;12.10;96.10
25640;DHT22;13497;48.322;16.204;2023-03-26T18:18:48;12.00;96.20
25640;DHT22;13497;48.322;16.204;2023-03-26T18:23:56;11.90;96.50
25640;DHT22;13497;48.322;16.204;2023-03-26T18:26:32;11.90;96.60
25640;DHT22;13497;48.322;16.204;2023-03-26T18:31:40;11.80;96.90
25640;DHT22;13497;48.322;16.204;2023-03-26T18:34:13;11.80;96.90
25640;DHT22;13497;48.322;16.204;2023-03-26T18:36:44;11.80;97.20
25640;DHT22;13497;48.322;16.204;2023-03-26T18:39:13;11.80;97.00
25640;DHT22;13497;48.322;16.204;2023-03-26T18:41:39;11.70;97.10
25640;DHT22;13497;48.322;16.204;2023-03-26T18:44:14;11.70;97.20
25640;DHT22;13497;48.322;16.204;2023-03-26T18:46:42;11.60;97.30
25640;DHT22;13497;48.322;16.204;2023-03-26T18:49:09;11.60;97.50
25640;DHT22;13497;48.322;16.204;2023-03-26T18:51:36;11.50;97.60
25640;DHT22;13497;48.322;16.204;2023-03-26T18:54:03;11.50;97.50
25640;DHT22;13497;48.322;16.204;2023-03-26T18:56:41;11.50;97.70
25640;DHT22;13497;48.322;16.204;2023-03-26T18:59:33;11.40;97.80
25640;DHT22;13497;48.322;16.204;2023-03-26T19:02:05;11.40;97.90
25640;DHT22;13497;48.322;16.204;2023-03-26T19:04:34;11.30;98.00
25640;DHT22;13497;48.322;16.204;2023-03-26T19:07:03;11.20;98.30
25640;DHT22;13497;48.322;16.204;2023-03-26T19:09:30;11.10;98.60
25640;DHT22;13497;48.322;16.204;2023-03-26T19:12:05;11.00;98.80
25640;DHT22;13497;48.322;16.204;2023-03-26T19:14:31;10.90;98.90
25640;DHT22;13497;48.322;16.204;2023-03-26T19:17:02;10.90;99.20
25640;DHT22;13497;48.322;16.204;2023-03-26T19:19:35;10.70;99.40
25640;DHT22;13497;48.322;16.204;2023-03-26T19:22:04;10.70;99.50
25640;DHT22;13497;48.322;16.204;2023-03-26T19:24:30;10.60;99.70
25640;DHT22;13497;48.322;16.204;2023-03-26T19:26:56;10.50;99.90
25640;DHT22;13497;48.322;16.204;2023-03-26T19:29:28;10.50;99.90
25640;DHT22;13497;48.322;16.204;2023-03-26T19:32:18;10.60;99.80
25640;DHT22;13497;48.322;16.204;2023-03-26T19:34:45;10.70;99.70
25640;DHT22;13497;48.322;16.204;2023-03-26T19:37:22;10.80;99.70
25640;DHT22;13497;48.322;16.204;2023-03-26T19:39:51;10.70;99.70
25640;DHT22;13497;48.322;16.204;2023-03-26T19:42:24;10.70;99.80
25640;DHT22;13497;48.322;16.204;2023-03-26T19:44:52;10.60;99.90
25640;DHT22;13497;48.322;16.204;2023-03-26T19:47:21;10.60;99.90
25640;DHT22;13497;48.322;16.204;2023-03-26T19:49:55;10.60;99.90
25640;DHT22;13497;48.322;16.204;2023-03-26T19:52:23;10.70;99.90
25640;DHT22;13497;48.322;16.204;2023-03-26T19:57:19;10.80;99.90
25640;DHT22;13497;48.322;16.204;2023-03-26T19:59:48;10.80;99.90
25640;DHT22;13497;48.322;16.204;2023-03-26T20:02:14;10.80;99.90
25640;DHT22;13497;48.322;16.204;2023-03-26T20:04:40;10.90;99.90
25640;DHT22;13497;48.322;16.204;2023-03-26T20:07:11;11.00;99.90
25640;DHT22;13497;48.322;16.204;2023-03-26T20:09:40;11.00;99.90
25640;DHT22;13497;48.322;16.204;2023-03-26T20:12:07;11.00;99.90
25640;DHT22;13497;48.322;16.204;2023-03-26T20:14:32;11.10;99.90
25640;DHT22;13497;48.322;16.204;2023-03-26T20:16:58;11.00;99.90
25640;DHT22;13497;48.322;16.204;2023-03-26T20:19:24;11.00;99.80
25640;DHT22;13497;48.322;16.204;2023-03-26T20:21:51;11.00;99.80
25640;DHT22;13497;48.322;16.204;2023-03-26T20:24:20;11.00;99.90
25640;DHT22;13497;48.322;16.204;2023-03-26T20:26:48;11.00;99.90
25640;DHT22;13497;48.322;16.204;2023-03-26T20:29:14;11.00;99.90
25640;DHT22;13497;48.322;16.204;2023-03-26T20:31:40;11.00;99.90
25640;DHT22;13497;48.322;16.204;2023-03-26T20:34:24;11.00;99.90
25640;DHT22;13497;48.322;16.204;2023-03-26T20:36:50;10.90;99.90
25640;DHT22;13497;48.322;16.204;2023-03-26T20:39:23;10.90;99.90
25640;DHT22;13497;48.322;16.204;2023-03-26T20:41:50;10.90;99.90
25640;DHT22;13497;48.322;16.204;2023-03-26T20:44:18;10.90;99.90
25640;DHT22;13497;48.322;16.204;2023-03-26T20:46:46;10.80;99.90
25640;DHT22;13497;48.322;16.204;2023-03-26T20:49:13;10.70;99.90
25640;DHT22;13497;48.322;16.204;2023-03-26T20:51:39;10.80;99.90
25640;DHT22;13497;48.322;16.204;2023-03-26T20:54:24;10.80;99.90
25640;DHT22;13497;48.322;16.204;2023-03-26T20:56:51;10.70;99.90
25640;DHT22;13497;48.322;16.204;2023-03-26T20:59:23;10.70;99.90
25640;DHT22;13497;48.322;16.204;2023-03-26T21:01:51;10.70;99.90
25640;DHT22;13497;48.322;16.204;2023-03-26T21:04:17;10.60;99.90
25640;DHT22;13497;48.322;16.204;2023-03-26T21:06:44;10.60;99.90
25640;DHT22;13497;48.322;16.204;2023-03-26T21:09:15;10.50;99.90
25640;DHT22;13497;48.322;16.204;2023-03-26T21:14:38;10.40;99.90
25640;DHT22;13497;48.322;16.204;2023-03-26T21:17:17;10.40;99.90
25640;DHT22;13497;48.322;16.204;2023-03-26T21:19:44;10.40;99.90
25640;DHT22;13497;48.322;16.204;2023-03-26T21:22:21;10.40;99.90
25640;DHT22;13497;48.322;16.204;2023-03-26T21:29:53;10.30;99.90
25640;DHT22;13497;48.322;16.204;2023-03-26T21:32:20;10.30;99.90
25640;DHT22;13497;48.322;16.204;2023-03-26T21:34:46;10.30;99.90
25640;DHT22;13497;48.322;16.204;2023-03-26T21:37:12;10.30;99.90